Time;durP1;ratioP1;P1;durP2;ratioP2;P2;SDS_P1;SDS_P2;PMS_P1;PMS_P2;Temp;Humidity;BMP_temperature;BMP_pressure;BME280_temperature;BME280_humidity;BME280_pressure;Samples;Min_cycle;Max_cycle;Signal;HPM_P1;HPM_P2
2022/01/19 00:00:48;;;;;;;57.13;26.77;;;4.70;99.90;;;;;;4955576;29;20248;-63
2022/01/19 00:03:14;;;;;;;59.20;28.77;;;4.80;99.90;;;;;;4953768;28;20261;-64
2022/01/19 00:05:41;;;;;;;54.67;28.57;;;4.80;99.90;;;;;;4955501;29;20180;-63
2022/01/19 00:08:07;;;;;;;51.93;26.73;;;4.80;99.90;;;;;;4955767;28;20319;-63
2022/01/19 00:10:34;;;;;;;53.63;27.80;;;4.80;99.90;;;;;;4955130;28;20307;-63
2022/01/19 00:13:01;;;;;;;52.53;26.83;;;4.80;99.90;;;;;;4955232;29;20176;-63
2022/01/19 00:15:28;;;;;;;60.17;28.13;;;4.80;99.90;;;;;;4955137;29;20192;-63
2022/01/19 00:17:58;;;;;;;59.50;28.57;;;4.80;99.90;;;;;;4955067;28;20184;-63
2022/01/19 00:20:26;;;;;;;63.07;28.13;;;4.80;99.90;;;;;;4955091;29;20625;-63
2022/01/19 00:22:53;;;;;;;57.80;28.47;;;4.80;99.90;;;;;;4955103;29;20180;-63
2022/01/19 00:25:19;;;;;;;52.37;28.03;;;4.80;99.90;;;;;;4955058;29;20168;-63
2022/01/19 00:27:45;;;;;;;55.53;28.17;;;4.80;99.90;;;;;;4954797;28;20210;-63
2022/01/19 00:30:12;;;;;;;65.07;29.27;;;4.80;99.90;;;;;;4954980;29;20212;-63
2022/01/19 00:32:38;;;;;;;56.60;29.27;;;4.80;99.90;;;;;;4954908;28;20651;-63
2022/01/19 00:35:05;;;;;;;54.03;28.43;;;4.80;99.90;;;;;;4954998;29;20180;-63
2022/01/19 00:37:31;;;;;;;62.00;30.03;;;4.90;99.90;;;;;;4954850;28;20195;-64
2022/01/19 00:39:57;;;;;;;52.23;22.77;;;4.90;99.90;;;;;;4953562;29;20291;-64
2022/01/19 00:42:23;;;;;;;64.97;28.97;;;5.00;99.90;;;;;;4953485;29;20264;-64
2022/01/19 00:44:48;;;;;;;62.83;28.10;;;5.10;99.90;;;;;;4954455;28;20259;-64
2022/01/19 00:47:15;;;;;;;48.10;22.63;;;5.10;99.90;;;;;;4954597;28;20177;-63
2022/01/19 00:49:42;;;;;;;52.67;27.33;;;5.10;99.90;;;;;;4954510;29;20646;-64
2022/01/19 00:52:10;;;;;;;54.47;28.97;;;5.20;99.90;;;;;;4954696;29;20263;-63
2022/01/19 00:54:36;;;;;;;65.33;31.93;;;5.20;99.90;;;;;;4954381;28;20172;-64
2022/01/19 00:57:03;;;;;;;65.63;31.47;;;5.10;99.90;;;;;;4959727;28;20607;-64
2022/01/19 00:59:29;;;;;;;76.43;34.93;;;5.20;99.90;;;;;;4956324;28;20632;-65
2022/01/19 01:01:55;;;;;;;59.23;29.93;;;5.10;99.90;;;;;;4950717;29;20195;-64
2022/01/19 01:04:20;;;;;;;59.23;28.87;;;5.10;99.90;;;;;;4943853;28;20186;-64
2022/01/19 01:06:46;;;;;;;65.40;29.50;;;5.10;99.90;;;;;;4937472;29;20239;-64
2022/01/19 01:09:12;;;;;;;55.80;28.03;;;5.20;99.90;;;;;;4952897;29;20207;-64
2022/01/19 01:11:47;;;;;;;54.83;27.57;;;5.10;99.90;;;;;;4954052;28;20737;-64
2022/01/19 01:16:57;;;;;;;55.30;27.10;;;5.20;99.90;;;;;;4954358;29;20193;-64
2022/01/19 01:19:23;;;;;;;53.77;25.03;;;5.20;99.90;;;;;;4952311;29;20260;-64
2022/01/19 01:21:49;;;;;;;68.43;29.03;;;5.30;99.90;;;;;;4952577;28;20308;-64
2022/01/19 01:24:15;;;;;;;57.43;28.00;;;5.30;99.90;;;;;;4953885;29;20181;-64
2022/01/19 01:26:41;;;;;;;62.57;27.90;;;5.30;99.90;;;;;;4953852;29;20180;-64
2022/01/19 01:29:07;;;;;;;63.77;26.07;;;5.40;99.90;;;;;;4953726;28;20191;-64
2022/01/19 01:31:32;;;;;;;61.73;27.03;;;5.40;99.90;;;;;;4953862;29;20223;-64
2022/01/19 01:33:58;;;;;;;48.20;23.17;;;5.50;99.90;;;;;;4953487;29;20176;-64
2022/01/19 01:36:24;;;;;;;51.93;21.53;;;5.50;99.90;;;;;;4936496;29;20627;-64
2022/01/19 01:38:50;;;;;;;49.10;22.77;;;5.60;99.90;;;;;;4953507;28;20726;-64
2022/01/19 01:41:16;;;;;;;64.93;29.20;;;5.60;99.90;;;;;;4953497;28;20188;-64
2022/01/19 01:43:43;;;;;;;37.07;16.50;;;5.60;99.90;;;;;;4936190;29;20290;-65
2022/01/19 01:46:19;;;;;;;43.60;17.77;;;5.70;99.90;;;;;;4953523;29;20193;-65
2022/01/19 01:48:46;;;;;;;47.67;21.97;;;5.80;99.90;;;;;;4953226;28;20188;-65
2022/01/19 01:53:58;;;;;;;27.83;13.30;;;5.80;99.90;;;;;;4953560;29;20721;-63
2022/01/19 01:56:24;;;;;;;24.97;12.47;;;6.00;99.90;;;;;;4952981;28;20287;-65
2022/01/19 01:58:50;;;;;;;30.83;14.93;;;6.30;99.90;;;;;;4940355;29;20221;-65
2022/01/19 02:01:17;;;;;;;31.60;12.40;;;6.10;99.90;;;;;;4934231;29;20174;-66
2022/01/19 02:03:44;;;;;;;25.03;11.70;;;6.20;99.90;;;;;;4935208;28;20256;-66
2022/01/19 02:24:20;;;;;;;40.03;17.07;;;6.10;99.90;;;;;;4952803;29;20173;-64
2022/01/19 02:40:25;;;;;;;21.87;8.93;;;6.40;99.90;;;;;;4936256;28;20200;-64
2022/01/19 02:51:06;;;;;;;25.23;9.93;;;6.50;99.90;;;;;;4952393;28;20320;-65
2022/01/19 02:53:36;;;;;;;19.43;8.90;;;6.60;99.90;;;;;;4952377;29;20636;-65
2022/01/19 02:56:09;;;;;;;19.13;9.70;;;6.50;99.90;;;;;;4952201;29;20235;-65
2022/01/19 02:58:41;;;;;;;21.40;9.87;;;6.50;99.90;;;;;;4952355;29;20184;-65
2022/01/19 03:09:19;;;;;;;26.70;12.33;;;6.30;99.90;;;;;;4952172;28;20180;-62
2022/01/19 03:11:45;;;;;;;22.53;11.67;;;6.30;99.90;;;;;;4952348;29;20197;-67
2022/01/19 03:14:12;;;;;;;28.17;12.43;;;6.30;99.90;;;;;;4952173;29;20189;-67
2022/01/19 03:16:38;;;;;;;27.03;12.27;;;6.30;99.90;;;;;;4952154;28;20279;-67
2022/01/19 03:19:07;;;;;;;28.03;12.83;;;6.30;99.90;;;;;;4952093;29;20312;-67
2022/01/19 03:21:33;;;;;;;22.37;11.03;;;6.30;99.90;;;;;;4951993;28;20181;-67
2022/01/19 03:24:00;;;;;;;24.47;11.63;;;6.30;99.90;;;;;;4950603;28;20631;-67
2022/01/19 03:26:27;;;;;;;28.00;12.23;;;6.30;99.90;;;;;;4952627;28;20180;-67
2022/01/19 03:28:53;;;;;;;24.47;10.40;;;6.30;99.90;;;;;;4955822;29;20187;-67
2022/01/19 03:31:19;;;;;;;23.03;10.23;;;6.30;99.90;;;;;;4955674;28;20214;-67
2022/01/19 03:33:45;;;;;;;25.07;11.20;;;6.30;99.90;;;;;;4955898;29;20168;-66
2022/01/19 03:36:12;;;;;;;24.27;10.67;;;6.30;99.90;;;;;;4955800;29;20196;-67
2022/01/19 03:38:38;;;;;;;22.97;10.20;;;6.30;99.90;;;;;;4955864;29;20173;-67
2022/01/19 03:41:04;;;;;;;21.77;9.83;;;6.40;99.90;;;;;;4955602;28;20180;-66
2022/01/19 03:43:30;;;;;;;19.13;8.53;;;6.40;99.90;;;;;;4955516;28;20169;-66
2022/01/19 03:45:58;;;;;;;22.67;8.63;;;6.50;99.90;;;;;;4955623;29;20239;-66
2022/01/19 03:51:20;;;;;;;21.13;8.93;;;6.60;99.90;;;;;;4946544;28;20299;-66
2022/01/19 03:53:46;;;;;;;21.73;9.10;;;6.70;99.90;;;;;;4955480;28;20189;-67
2022/01/19 03:56:12;;;;;;;20.40;9.17;;;6.60;99.90;;;;;;4955310;29;20295;-66
2022/01/19 03:58:38;;;;;;;18.40;8.03;;;6.70;99.90;;;;;;4952750;29;20639;-65
2022/01/19 04:01:05;;;;;;;20.43;8.27;;;6.70;99.90;;;;;;4939212;28;20658;-67
2022/01/19 04:06:26;;;;;;;20.20;8.13;;;6.70;99.90;;;;;;4955428;29;20183;-65
2022/01/19 04:08:52;;;;;;;19.73;7.93;;;6.70;99.90;;;;;;4955359;29;20180;-66
2022/01/19 04:11:20;;;;;;;18.70;8.10;;;6.70;99.90;;;;;;4954863;28;20295;-66
2022/01/19 04:16:22;;;;;;;18.90;8.50;;;6.70;99.90;;;;;;4955339;29;20259;-66
2022/01/19 04:18:50;;;;;;;19.57;8.70;;;6.70;99.90;;;;;;4935990;29;20192;-66
2022/01/19 04:21:16;;;;;;;16.47;8.53;;;6.70;99.90;;;;;;4952893;28;20189;-67
2022/01/19 04:23:42;;;;;;;16.70;8.27;;;6.70;99.90;;;;;;4954925;29;20182;-66
2022/01/19 04:26:07;;;;;;;18.10;8.03;;;6.80;99.90;;;;;;4937764;29;20674;-66
2022/01/19 04:28:34;;;;;;;14.70;7.47;;;6.70;99.90;;;;;;4954993;29;20643;-66
2022/01/19 04:30:59;;;;;;;17.90;7.50;;;6.70;99.90;;;;;;4946324;28;20295;-66
2022/01/19 04:33:27;;;;;;;16.53;7.80;;;6.70;99.90;;;;;;4935663;29;20669;-66
2022/01/19 04:36:05;;;;;;;16.87;8.50;;;6.70;99.90;;;;;;4935570;29;20237;-66
2022/01/19 04:47:10;;;;;;;25.53;8.80;;;6.70;99.90;;;;;;4954616;29;20183;-65
2022/01/19 05:03:50;;;;;;;23.37;7.30;;;6.70;99.90;;;;;;4954485;29;20191;-67
2022/01/19 05:05:55;;;;;;;16.83;7.00;;;6.80;99.90;;;;;;4953406;28;20185;-66
2022/01/19 05:13:51;;;;;;;13.53;7.37;;;7.00;99.90;;;;;;4953778;28;20183;-67
2022/01/19 05:16:19;;;;;;;17.83;7.60;;;7.00;99.90;;;;;;4954052;29;20623;-68
2022/01/19 05:18:46;;;;;;;19.00;7.60;;;7.00;99.90;;;;;;4954112;29;20173;-69
2022/01/19 05:21:12;;;;;;;17.73;7.60;;;7.00;99.90;;;;;;4953696;28;20816;-67
2022/01/19 05:23:38;;;;;;;12.93;7.10;;;7.00;99.90;;;;;;4953955;29;20208;-67
2022/01/19 05:26:04;;;;;;;15.70;7.73;;;7.00;99.90;;;;;;4953903;29;20255;-66
2022/01/19 05:28:30;;;;;;;18.53;7.70;;;7.00;99.90;;;;;;4953769;29;20631;-67
2022/01/19 05:30:55;;;;;;;22.37;7.87;;;6.90;99.90;;;;;;4953799;28;20679;-67
2022/01/19 05:33:21;;;;;;;15.00;6.90;;;6.90;99.90;;;;;;4953701;28;20571;-66
2022/01/19 05:35:47;;;;;;;19.20;8.20;;;7.00;99.90;;;;;;4936687;29;20180;-66
2022/01/19 05:38:13;;;;;;;18.93;8.07;;;6.90;99.90;;;;;;4953617;29;20255;-67
2022/01/19 05:40:39;;;;;;;17.00;7.77;;;6.90;99.90;;;;;;4953360;28;20663;-69
2022/01/19 05:43:05;;;;;;;17.30;8.03;;;6.90;99.90;;;;;;4936319;29;20194;-68
2022/01/19 05:45:31;;;;;;;16.33;8.00;;;6.50;99.90;;;;;;4953561;28;20192;-69
2022/01/19 05:47:57;;;;;;;17.97;8.23;;;6.70;99.90;;;;;;4953481;29;20195;-69
2022/01/19 05:50:24;;;;;;;19.13;8.10;;;6.70;99.90;;;;;;4952910;28;20221;-68
2022/01/19 05:52:50;;;;;;;15.50;8.30;;;6.70;99.90;;;;;;4953133;28;20188;-67
2022/01/19 05:55:16;;;;;;;20.60;7.97;;;6.60;99.90;;;;;;4953143;28;20239;-67
2022/01/19 05:57:42;;;;;;;20.10;8.73;;;6.60;99.90;;;;;;4953321;29;20631;-59
2022/01/19 06:00:09;;;;;;;17.53;8.40;;;6.60;99.90;;;;;;4953179;28;20188;-67
2022/01/19 06:02:35;;;;;;;19.13;8.77;;;6.20;99.90;;;;;;4953245;29;20173;-67
2022/01/19 06:05:01;;;;;;;15.30;8.33;;;6.60;99.90;;;;;;4953348;29;20220;-67
2022/01/19 06:07:29;;;;;;;20.37;9.10;;;6.60;99.90;;;;;;4953044;28;20853;-67
2022/01/19 06:10:07;;;;;;;19.00;8.37;;;6.70;99.90;;;;;;4953073;29;20249;-66
2022/01/19 06:12:33;;;;;;;18.63;7.67;;;6.70;99.90;;;;;;4953078;29;20172;-69
2022/01/19 06:15:00;;;;;;;19.17;9.30;;;6.80;99.90;;;;;;4953349;28;20207;-67
2022/01/19 06:17:26;;;;;;;20.00;8.13;;;6.80;99.90;;;;;;4952864;29;20188;-67
2022/01/19 06:19:52;;;;;;;16.60;8.17;;;6.80;99.90;;;;;;4952722;28;20235;-67
2022/01/19 06:22:20;;;;;;;16.40;7.20;;;6.80;99.90;;;;;;4952934;29;20247;-68
2022/01/19 06:24:46;;;;;;;16.00;7.80;;;6.70;99.90;;;;;;4952930;29;20180;-68
2022/01/19 06:27:12;;;;;;;19.13;8.40;;;6.60;99.90;;;;;;4952610;28;20176;-68
2022/01/19 06:29:38;;;;;;;19.00;8.27;;;6.50;99.90;;;;;;4952824;28;20323;-68
2022/01/19 06:32:04;;;;;;;16.50;7.63;;;6.40;99.90;;;;;;4945338;29;20594;-67
2022/01/19 06:34:30;;;;;;;14.90;8.20;;;6.40;99.90;;;;;;4933492;29;20653;-67
2022/01/19 06:36:55;;;;;;;22.60;8.30;;;6.30;99.90;;;;;;4946578;28;20207;-68
2022/01/19 06:39:22;;;;;;;18.47;8.70;;;6.20;99.90;;;;;;4952557;29;20188;-68
2022/01/19 06:41:48;;;;;;;19.57;9.27;;;6.20;99.90;;;;;;4952683;29;20168;-68
2022/01/19 06:44:14;;;;;;;18.23;9.00;;;6.20;99.90;;;;;;4950799;29;20247;-68
2022/01/19 06:46:43;;;;;;;18.63;9.30;;;6.20;99.90;;;;;;4944324;28;20203;-69
2022/01/19 06:49:10;;;;;;;20.27;9.70;;;6.20;99.90;;;;;;4952596;29;20177;-69
2022/01/19 06:51:36;;;;;;;20.23;10.00;;;6.20;99.90;;;;;;4952349;29;20242;-69
2022/01/19 06:54:02;;;;;;;19.30;8.93;;;6.20;99.90;;;;;;4952130;28;20192;-69
2022/01/19 06:56:28;;;;;;;15.13;8.63;;;6.30;99.90;;;;;;4952263;29;20232;-69
2022/01/19 06:58:54;;;;;;;22.97;9.53;;;6.30;99.90;;;;;;4952349;28;20621;-69
2022/01/19 07:01:20;;;;;;;18.03;8.30;;;6.30;99.90;;;;;;4951617;29;20190;-70
2022/01/19 07:03:46;;;;;;;17.77;8.93;;;6.30;99.90;;;;;;4934841;29;20529;-60
2022/01/19 07:06:12;;;;;;;15.40;7.90;;;6.30;99.90;;;;;;4936775;29;20188;-71
2022/01/19 07:08:41;;;;;;;16.50;7.90;;;6.30;99.90;;;;;;4931950;29;20648;-68
2022/01/19 07:11:07;;;;;;;13.33;6.50;;;6.30;99.90;;;;;;4931678;29;20288;-68
2022/01/19 07:13:33;;;;;;;21.63;6.40;;;6.60;99.90;;;;;;4943236;28;20272;-68
2022/01/19 07:15:59;;;;;;;17.63;6.23;;;6.70;99.90;;;;;;4952298;29;20184;-68
2022/01/19 07:18:25;;;;;;;10.87;5.73;;;6.80;99.90;;;;;;4952248;29;20247;-68
2022/01/19 07:20:51;;;;;;;13.87;5.60;;;6.80;99.90;;;;;;4952049;28;20187;-68
2022/01/19 07:23:17;;;;;;;15.83;6.23;;;6.90;99.90;;;;;;4952449;29;20306;-67
2022/01/19 07:25:43;;;;;;;15.80;6.13;;;7.00;99.90;;;;;;4952112;29;20631;-67
2022/01/19 07:28:11;;;;;;;15.33;6.50;;;7.00;99.90;;;;;;4951978;28;20655;-67
2022/01/19 07:30:37;;;;;;;17.77;6.87;;;7.00;99.90;;;;;;4952161;29;20354;-67
2022/01/19 07:33:03;;;;;;;16.13;6.80;;;7.00;99.90;;;;;;4952049;29;20239;-67
2022/01/19 07:35:30;;;;;;;16.60;6.93;;;7.00;99.90;;;;;;4952047;29;20176;-69
2022/01/19 07:37:57;;;;;;;22.03;7.70;;;7.00;99.90;;;;;;4951941;29;20183;-67
2022/01/19 07:40:22;;;;;;;14.17;6.73;;;7.00;99.90;;;;;;4952045;28;20172;-61
2022/01/19 07:42:49;;;;;;;23.07;7.80;;;7.00;99.90;;;;;;4952142;29;20185;-59
2022/01/19 07:45:15;;;;;;;14.63;6.83;;;7.00;99.90;;;;;;4951943;29;20191;-59
2022/01/19 07:47:41;;;;;;;16.57;6.50;;;7.00;99.90;;;;;;4951510;28;20219;-62
2022/01/19 07:50:08;;;;;;;13.90;5.93;;;7.00;99.90;;;;;;4934710;28;20589;-60
2022/01/19 07:52:34;;;;;;;19.93;6.73;;;7.10;99.90;;;;;;4952100;28;20185;-61
2022/01/19 07:55:00;;;;;;;13.37;5.80;;;7.20;99.90;;;;;;4951511;29;20636;-62
2022/01/19 07:57:26;;;;;;;13.13;5.80;;;7.30;99.90;;;;;;4951801;29;20173;-61
2022/01/19 07:59:52;;;;;;;13.13;5.60;;;7.30;99.90;;;;;;4951619;28;20185;-62
2022/01/19 08:02:17;;;;;;;12.27;5.47;;;7.30;99.90;;;;;;4951109;28;20586;-65
2022/01/19 08:04:44;;;;;;;13.23;5.70;;;7.40;99.90;;;;;;4951517;29;20181;-64
2022/01/19 08:07:10;;;;;;;15.60;5.83;;;7.40;99.90;;;;;;4951914;29;20176;-65
2022/01/19 08:09:36;;;;;;;11.60;5.20;;;7.50;99.90;;;;;;4934336;29;20675;-64
2022/01/19 08:12:02;;;;;;;13.87;5.53;;;7.60;99.90;;;;;;4951398;28;20183;-64
2022/01/19 08:14:29;;;;;;;14.47;5.47;;;7.60;99.90;;;;;;4951892;29;20177;-64
2022/01/19 08:16:55;;;;;;;12.87;5.20;;;7.70;99.90;;;;;;4954851;29;20181;-65
2022/01/19 08:19:21;;;;;;;11.70;5.47;;;7.70;99.90;;;;;;4937374;29;20284;-62
2022/01/19 08:21:47;;;;;;;12.87;5.10;;;7.80;99.90;;;;;;4955226;29;20707;-60
2022/01/19 08:24:14;;;;;;;10.60;5.50;;;7.80;99.90;;;;;;4955169;29;20241;-60
2022/01/19 08:26:40;;;;;;;16.47;6.43;;;7.80;99.90;;;;;;4955076;29;20252;-60
2022/01/19 08:29:06;;;;;;;17.33;6.20;;;7.80;99.90;;;;;;4954758;28;20173;-60
2022/01/19 08:31:33;;;;;;;12.63;5.83;;;7.80;99.90;;;;;;4954126;28;20214;-61
2022/01/19 08:33:59;;;;;;;16.07;5.53;;;7.80;99.90;;;;;;4954683;29;20635;-61
2022/01/19 08:36:26;;;;;;;16.60;5.80;;;7.70;99.90;;;;;;4954692;29;20589;-61
2022/01/19 08:38:56;;;;;;;19.03;5.17;;;7.80;99.90;;;;;;4954306;28;20204;-60
2022/01/19 08:41:22;;;;;;;17.63;5.23;;;7.90;99.90;;;;;;4954096;28;20271;-60
2022/01/19 08:43:48;;;;;;;17.53;4.60;;;8.00;99.90;;;;;;4954469;29;20251;-60
2022/01/19 08:46:14;;;;;;;14.73;5.50;;;8.10;99.90;;;;;;4954133;28;20176;-61
2022/01/19 08:48:40;;;;;;;18.13;5.13;;;8.10;99.90;;;;;;4954502;29;20204;-60
2022/01/19 08:51:06;;;;;;;12.57;5.30;;;8.20;99.90;;;;;;4954208;29;20212;-60
2022/01/19 08:53:33;;;;;;;15.07;4.87;;;8.20;99.90;;;;;;4951124;28;20705;-60
2022/01/19 08:55:59;;;;;;;11.40;4.77;;;8.20;99.90;;;;;;4953864;29;20307;-60
2022/01/19 08:58:24;;;;;;;14.33;5.30;;;8.30;99.90;;;;;;4954324;29;20252;-59
2022/01/19 09:00:50;;;;;;;13.50;4.73;;;8.30;99.90;;;;;;4952580;28;20295;-59
2022/01/19 09:03:17;;;;;;;20.80;5.07;;;8.30;99.90;;;;;;4943389;29;20543;-57
2022/01/19 09:05:43;;;;;;;14.13;4.63;;;8.40;99.90;;;;;;4954119;28;20256;-61
2022/01/19 09:08:09;;;;;;;10.93;4.77;;;8.40;99.90;;;;;;4953885;28;20172;-66
2022/01/19 09:10:37;;;;;;;12.33;4.27;;;8.50;99.90;;;;;;4954008;29;20216;-69
2022/01/19 09:13:03;;;;;;;17.63;4.80;;;8.50;99.90;;;;;;4949417;29;20169;-67
2022/01/19 09:15:29;;;;;;;15.33;4.63;;;8.50;99.90;;;;;;4959680;28;20199;-59
2022/01/19 09:17:54;;;;;;;9.07;3.60;;;8.50;99.90;;;;;;4953235;28;20184;-64
2022/01/19 09:20:20;;;;;;;16.80;4.33;;;8.60;99.90;;;;;;4951931;29;20234;-64
2022/01/19 09:22:46;;;;;;;10.10;4.27;;;8.70;99.90;;;;;;4953948;29;20177;-66
2022/01/19 09:25:13;;;;;;;13.20;3.97;;;8.70;99.90;;;;;;4952939;28;20188;-66
2022/01/19 09:27:39;;;;;;;14.07;4.13;;;8.70;99.90;;;;;;4953246;28;20180;-59
2022/01/19 09:30:08;;;;;;;10.30;4.23;;;8.60;99.90;;;;;;4953489;28;20204;-59
2022/01/19 09:32:34;;;;;;;19.00;4.43;;;8.60;99.90;;;;;;4952267;28;20195;-59
2022/01/19 09:35:06;;;;;;;17.27;5.30;;;8.50;99.90;;;;;;4953727;28;20231;-59
2022/01/19 09:37:32;;;;;;;18.27;4.63;;;8.40;99.90;;;;;;4953474;28;20177;-58
2022/01/19 09:39:58;;;;;;;16.97;5.53;;;8.30;99.90;;;;;;4953409;28;20624;-58
2022/01/19 09:42:24;;;;;;;10.63;5.20;;;8.30;99.90;;;;;;4953268;28;20204;-59
2022/01/19 09:44:52;;;;;;;14.87;5.43;;;8.20;99.90;;;;;;4953406;29;20211;-59
2022/01/19 09:47:18;;;;;;;20.27;5.87;;;8.20;99.90;;;;;;4953531;29;20215;-58
2022/01/19 09:49:44;;;;;;;16.30;6.60;;;8.10;99.90;;;;;;4936477;28;20236;-59
2022/01/19 09:52:10;;;;;;;16.67;6.30;;;8.10;99.90;;;;;;4962492;28;20180;-59
2022/01/19 09:54:36;;;;;;;18.50;6.00;;;8.10;99.90;;;;;;4950075;28;20191;-58
2022/01/19 09:57:03;;;;;;;12.73;6.37;;;8.10;99.90;;;;;;4952815;29;20229;-59
2022/01/19 09:59:29;;;;;;;15.00;6.93;;;8.10;99.90;;;;;;4953124;28;20173;-59
2022/01/19 10:02:07;;;;;;;22.33;7.30;;;8.10;99.90;;;;;;4952764;28;20176;-59
2022/01/19 10:04:38;;;;;;;20.80;7.60;;;8.10;99.90;;;;;;4953102;28;20176;-58
2022/01/19 10:07:22;;;;;;;18.93;8.27;;;8.10;99.90;;;;;;4953235;28;20221;-58
2022/01/19 10:09:58;;;;;;;14.50;7.40;;;8.10;99.90;;;;;;4952257;28;20188;-58
2022/01/19 10:18:33;;;;;;;19.40;7.27;;;8.60;99.90;;;;;;4944901;28;20392;-64
2022/01/19 10:21:12;;;;;;;22.37;7.27;;;8.90;99.90;;;;;;4951340;28;20251;-66
2022/01/19 10:23:48;;;;;;;18.63;8.33;;;9.30;99.90;;;;;;4951726;29;20647;-66
2022/01/19 10:26:26;;;;;;;15.80;7.00;;;9.60;99.90;;;;;;4946242;28;20180;-66
2022/01/19 10:29:07;;;;;;;17.90;7.17;;;9.80;99.90;;;;;;4952869;28;20652;-65
2022/01/19 10:31:35;;;;;;;14.30;6.43;;;9.90;99.90;;;;;;4952326;28;20303;-66
2022/01/19 10:34:16;;;;;;;17.17;6.57;;;9.90;99.90;;;;;;4952592;28;20211;-65
2022/01/19 10:36:57;;;;;;;17.33;7.10;;;10.30;99.90;;;;;;4951502;28;20211;-66
2022/01/19 10:39:24;;;;;;;19.07;6.77;;;10.70;99.90;;;;;;4952553;29;20173;-66
2022/01/19 10:42:05;;;;;;;12.63;5.77;;;11.00;99.90;;;;;;4951200;29;20663;-66
2022/01/19 10:44:36;;;;;;;15.07;5.47;;;11.20;99.90;;;;;;4950644;28;20245;-66
2022/01/19 10:47:03;;;;;;;16.40;5.83;;;11.40;99.90;;;;;;4949785;28;20658;-66
2022/01/19 10:49:55;;;;;;;20.40;6.20;;;12.00;99.90;;;;;;4945564;28;20191;-66
2022/01/19 10:52:32;;;;;;;18.17;5.40;;;13.20;99.90;;;;;;4952139;28;20841;-66
2022/01/19 10:55:03;;;;;;;17.17;5.67;;;13.50;99.90;;;;;;4952170;28;20187;-66
2022/01/19 10:57:30;;;;;;;14.67;4.90;;;13.20;99.90;;;;;;4951970;28;20184;-66
2022/01/19 11:00:36;;;;;;;13.70;5.20;;;13.60;99.90;;;;;;4952107;28;20184;-66
2022/01/19 11:03:17;;;;;;;10.38;5.05;;;14.40;99.90;;;;;;4952434;28;20275;-66
2022/01/19 11:05:52;;;;;;;11.95;3.92;;;14.50;99.90;;;;;;4951349;28;20184;-65
2022/01/19 11:08:21;;;;;;;14.90;4.18;;;16.40;99.90;;;;;;4952089;29;20191;-68
2022/01/19 11:10:49;;;;;;;16.08;4.05;;;16.30;99.90;;;;;;4951743;28;20208;-60
2022/01/19 11:13:32;;;;;;;14.43;3.53;;;15.70;99.90;;;;;;4951988;28;20428;-60
2022/01/19 11:16:01;;;;;;;16.65;4.00;;;15.60;99.90;;;;;;4941961;29;20188;-60
2022/01/19 11:18:32;;;;;;;10.95;3.88;;;15.70;99.90;;;;;;4952231;28;20252;-60
2022/01/19 11:21:07;;;;;;;12.25;3.67;;;16.00;99.90;;;;;;4942441;29;20177;-60
2022/01/19 11:23:49;;;;;;;15.52;4.47;;;15.20;99.90;;;;;;4952162;29;20176;-60
2022/01/19 11:26:17;;;;;;;13.68;4.15;;;15.40;99.90;;;;;;4951878;29;20230;-60
2022/01/19 11:28:46;;;;;;;13.88;4.28;;;15.50;99.90;;;;;;4952026;29;20263;-60
2022/01/19 11:31:15;;;;;;;12.95;4.28;;;16.90;99.90;;;;;;4932974;29;20232;-60
2022/01/19 11:33:52;;;;;;;14.25;4.15;;;17.10;99.90;;;;;;4940893;28;20180;-60
2022/01/19 11:36:25;;;;;;;14.23;3.63;;;16.20;99.90;;;;;;4951804;28;20676;-60
2022/01/19 11:39:09;;;;;;;10.00;3.83;;;17.20;99.90;;;;;;4934643;29;20177;-61
2022/01/19 11:41:44;;;;;;;12.82;3.72;;;19.50;99.90;;;;;;4949492;29;20176;-61
2022/01/19 11:44:15;;;;;;;9.88;3.88;;;19.90;99.90;;;;;;4933317;29;20242;-61
2022/01/19 11:46:48;;;;;;;12.55;3.53;;;21.30;99.90;;;;;;4937735;28;20191;-61
2022/01/19 11:49:17;;;;;;;9.55;3.50;;;20.90;99.90;;;;;;4954848;29;20191;-61
2022/01/19 11:51:47;;;;;;;7.57;2.85;;;22.00;99.90;;;;;;4955576;29;20220;-61
2022/01/19 11:54:30;;;;;;;12.65;3.63;;;22.30;99.90;;;;;;4955548;29;20723;-61
2022/01/19 11:56:58;;;;;;;11.82;4.22;;;21.20;99.90;;;;;;4955471;29;20259;-61
2022/01/19 11:59:30;;;;;;;12.82;3.42;;;18.30;99.90;;;;;;4955442;28;20172;-61
2022/01/19 12:02:34;;;;;;;11.25;3.70;;;16.60;99.90;;;;;;4953417;29;20164;-61
2022/01/19 12:05:04;;;;;;;11.93;3.75;;;14.80;99.90;;;;;;4942160;29;20177;-61
2022/01/19 12:08:17;;;;;;;13.13;3.58;;;16.00;99.90;;;;;;4955001;29;20172;-60
2022/01/19 12:10:47;;;;;;;7.95;3.22;;;18.80;99.90;;;;;;4947959;28;20287;-61
2022/01/19 12:13:55;;;;;;;9.52;3.58;;;17.90;99.90;;;;;;4953591;28;20183;-61
2022/01/19 12:19:08;;;;;;;16.23;3.70;;;16.40;99.90;;;;;;4954921;28;20180;-61
2022/01/19 12:21:36;;;;;;;11.02;3.15;;;15.80;99.90;;;;;;4953964;29;20228;-61
2022/01/19 12:24:21;;;;;;;9.80;3.85;;;15.40;99.90;;;;;;4937849;29;20180;-61
2022/01/19 12:27:06;;;;;;;10.18;3.45;;;16.20;99.90;;;;;;4953816;28;20252;-61
2022/01/19 12:29:37;;;;;;;8.00;3.00;;;17.20;99.90;;;;;;4946328;29;20200;-61
2022/01/19 12:32:27;;;;;;;13.68;3.35;;;15.50;99.90;;;;;;4955146;29;20220;-61
2022/01/19 12:35:16;;;;;;;7.10;2.97;;;16.10;99.90;;;;;;4935568;29;20640;-61
2022/01/19 12:37:51;;;;;;;9.93;3.30;;;16.80;99.90;;;;;;4935799;29;20174;-61
2022/01/19 12:40:17;;;;;;;9.48;3.97;;;15.60;99.90;;;;;;4935590;29;20642;-61
2022/01/19 12:42:48;;;;;;;11.05;4.00;;;14.80;99.90;;;;;;4937964;29;20209;-61
2022/01/19 12:45:22;;;;;;;16.27;4.50;;;14.30;99.90;;;;;;4941825;29;20204;-62
2022/01/19 12:47:53;;;;;;;17.70;4.93;;;13.90;99.90;;;;;;4954665;28;20180;-62
2022/01/19 12:50:19;;;;;;;15.90;5.05;;;13.70;99.90;;;;;;4954611;28;20679;-61
2022/01/19 12:52:59;;;;;;;10.48;3.83;;;13.40;99.90;;;;;;4954397;28;20179;-61
2022/01/19 12:55:33;;;;;;;11.65;3.78;;;13.10;99.90;;;;;;4959591;28;20294;-61
2022/01/19 12:58:00;;;;;;;10.90;4.13;;;12.90;99.90;;;;;;4956652;28;20176;-61
2022/01/19 13:00:33;;;;;;;11.73;3.05;;;13.00;99.90;;;;;;4972678;28;20180;-61
2022/01/19 13:03:10;;;;;;;5.70;2.08;;;12.70;99.90;;;;;;4973779;28;20195;-62
2022/01/19 13:05:45;;;;;;;6.88;2.10;;;12.60;99.90;;;;;;4973689;28;20175;-62
2022/01/19 13:08:12;;;;;;;7.32;2.58;;;12.50;99.90;;;;;;4973708;28;20257;-61
2022/01/19 13:10:47;;;;;;;6.97;2.13;;;12.40;99.90;;;;;;4973415;28;20222;-61
2022/01/19 13:13:29;;;;;;;3.40;1.60;;;12.70;99.90;;;;;;4973401;28;20202;-61
2022/01/19 13:16:02;;;;;;;4.80;1.13;;;13.10;99.90;;;;;;4973505;28;20729;-61
2022/01/19 13:18:32;;;;;;;7.70;1.50;;;13.20;99.90;;;;;;4973370;28;20393;-61
2022/01/19 13:21:03;;;;;;;6.38;1.35;;;15.80;99.90;;;;;;4973380;28;20176;-61
2022/01/19 13:23:33;;;;;;;3.17;1.10;;;16.80;99.90;;;;;;4954006;29;20184;-61
2022/01/19 13:26:12;;;;;;;3.67;1.05;;;16.50;99.90;;;;;;4953700;29;20335;-62
2022/01/19 13:28:38;;;;;;;4.93;1.10;;;18.90;99.90;;;;;;4953873;29;20247;-62
2022/01/19 13:31:11;;;;;;;8.05;1.60;;;18.90;99.90;;;;;;4952311;29;20224;-62
2022/01/19 13:33:37;;;;;;;5.20;1.25;;;18.50;99.90;;;;;;4953704;29;20260;-62
2022/01/19 13:36:04;;;;;;;5.28;1.50;;;18.50;99.90;;;;;;4967991;28;20187;-62
2022/01/19 13:38:30;;;;;;;4.60;1.10;;;18.10;99.90;;;;;;4960347;28;20177;-62
2022/01/19 13:41:09;;;;;;;7.80;1.48;;;17.40;99.90;;;;;;4953818;29;20279;-62
2022/01/19 13:43:38;;;;;;;8.18;1.60;;;18.60;99.90;;;;;;4953416;29;20204;-62
2022/01/19 13:46:15;;;;;;;7.68;1.58;;;18.70;99.90;;;;;;4953635;29;20353;-61
2022/01/19 13:48:47;;;;;;;19.40;2.17;;;18.70;99.90;;;;;;4953513;29;20236;-62
2022/01/19 13:51:17;;;;;;;17.45;1.35;;;18.30;99.90;;;;;;4953423;29;20208;-61
2022/01/19 13:53:51;;;;;;;26.27;2.05;;;17.30;99.90;;;;;;4953143;29;20187;-61
2022/01/19 13:56:42;;;;;;;13.27;2.03;;;17.70;99.90;;;;;;4950058;28;20231;-61
2022/01/19 13:59:17;;;;;;;15.02;1.60;;;17.40;99.90;;;;;;4940041;29;20189;-62
2022/01/19 14:01:57;;;;;;;19.13;2.03;;;17.40;99.90;;;;;;4953175;29;20188;-62
2022/01/19 14:04:24;;;;;;;9.23;1.98;;;18.60;99.90;;;;;;4953157;29;20188;-62
2022/01/19 14:06:50;;;;;;;22.35;2.22;;;18.00;99.90;;;;;;4935676;29;20232;-62
2022/01/19 14:09:20;;;;;;;11.88;1.88;;;17.70;99.90;;;;;;4952410;28;20189;-62
2022/01/19 14:12:08;;;;;;;5.93;1.02;;;17.70;99.90;;;;;;4952065;28;20212;-61
2022/01/19 14:14:41;;;;;;;6.55;1.75;;;16.30;99.90;;;;;;4952956;28;20200;-61
2022/01/19 14:17:10;;;;;;;9.48;1.75;;;15.50;99.90;;;;;;4952415;28;20196;-61
2022/01/19 14:19:47;;;;;;;16.20;1.98;;;14.50;99.90;;;;;;4951696;28;20181;-61
2022/01/19 14:22:16;;;;;;;7.32;1.67;;;14.50;99.90;;;;;;4926496;28;20657;-61
2022/01/19 14:24:45;;;;;;;8.52;1.35;;;14.70;99.90;;;;;;4948768;29;20176;-61
2022/01/19 14:27:32;;;;;;;9.02;1.33;;;15.30;99.90;;;;;;4952594;28;20853;-60
2022/01/19 14:30:16;;;;;;;7.60;1.40;;;14.90;99.90;;;;;;4952381;28;20180;-61
2022/01/19 14:32:49;;;;;;;6.85;1.25;;;14.50;99.90;;;;;;4952532;28;20184;-61